Time;durP1;ratioP1;P1;durP2;ratioP2;P2;SDS_P1;SDS_P2;PMS_P1;PMS_P2;Temp;Humidity;BMP_temperature;BMP_pressure;BME280_temperature;BME280_humidity;BME280_pressure;Samples;Min_cycle;Max_cycle;Signal;HPM_P1;HPM_P2
2021/04/11 00:00:36;;;;;;;0.80;0.60;;;;;;;;;;5091387;28;20419;-71
2021/04/11 00:03:05;;;;;;;1.20;0.50;;;;;;;;;;5091247;28;20865;-71
2021/04/11 00:05:32;;;;;;;0.80;0.50;;;;;;;;;;5092889;28;20420;-70
2021/04/11 00:07:59;;;;;;;0.80;0.50;;;;;;;;;;5094087;28;20917;-69
2021/04/11 00:10:27;;;;;;;0.80;0.67;;;;;;;;;;5093288;28;20416;-71
2021/04/11 00:12:53;;;;;;;0.90;0.60;;;;;;;;;;5077387;28;20406;-70
2021/04/11 00:15:19;;;;;;;0.80;0.60;;;;;;;;;;5073711;28;20419;-71
2021/04/11 00:17:45;;;;;;;0.70;0.40;;;;;;;;;;5085677;28;20432;-71
2021/04/11 00:20:11;;;;;;;0.90;0.83;;;;;;;;;;5088880;28;20390;-70
2021/04/11 00:22:37;;;;;;;0.80;0.60;;;;;;;;;;5071301;28;20767;-70
2021/04/11 00:25:05;;;;;;;1.83;1.60;;;;;;;;;;5091562;28;20938;-70
2021/04/11 00:27:31;;;;;;;1.30;0.90;;;;;;;;;;5085680;28;20417;-70
2021/04/11 00:29:57;;;;;;;0.80;0.60;;;;;;;;;;5082821;28;20400;-70
2021/04/11 00:32:23;;;;;;;2.20;0.80;;;;;;;;;;5083339;28;20405;-71
2021/04/11 00:34:49;;;;;;;1.73;1.63;;;;;;;;;;5083787;28;20464;-72
2021/04/11 00:37:15;;;;;;;4.33;1.43;;;;;;;;;;5092964;28;20429;-71
2021/04/11 00:39:41;;;;;;;1.80;1.17;;;;;;;;;;5092835;28;20372;-69
2021/04/11 00:42:10;;;;;;;0.80;0.70;;;;;;;;;;5092954;28;20531;-70
2021/04/11 00:44:36;;;;;;;2.57;1.10;;;;;;;;;;5092057;28;20500;-70
2021/04/11 00:47:03;;;;;;;0.80;0.63;;;;;;;;;;5093559;28;20527;-71
2021/04/11 00:49:34;;;;;;;0.80;0.70;;;;;;;;;;5093663;28;20409;-70
2021/04/11 00:52:01;;;;;;;0.93;0.80;;;;;;;;;;5092754;28;20454;-71
2021/04/11 00:54:27;;;;;;;0.80;0.50;;;;;;;;;;5093196;28;20456;-70
2021/04/11 00:56:53;;;;;;;2.50;1.00;;;;;;;;;;5101614;22;20489;-72
2021/04/11 00:59:19;;;;;;;0.80;0.70;;;;;;;;;;5069813;28;20435;-72
2021/04/11 01:01:45;;;;;;;1.47;1.17;;;;;;;;;;5071731;28;20406;-72
2021/04/11 01:04:15;;;;;;;0.80;0.63;;;;;;;;;;5073037;28;20394;-73
2021/04/11 01:06:46;;;;;;;1.20;0.83;;;;;;;;;;5066443;28;20465;-72
2021/04/11 01:09:19;;;;;;;3.07;1.17;;;;;;;;;;5067529;28;20869;-73
2021/04/11 01:11:45;;;;;;;0.70;0.53;;;;;;;;;;5034165;28;20577;-72
2021/04/11 01:14:12;;;;;;;1.33;0.87;;;;;;;;;;5052620;28;20454;-72
2021/04/11 01:16:39;;;;;;;1.00;0.80;;;;;;;;;;5052363;28;20446;-73
2021/04/11 01:19:07;;;;;;;1.43;1.27;;;;;;;;;;5054421;28;20398;-72
2021/04/11 01:21:43;;;;;;;1.30;1.03;;;;;;;;;;5072038;28;20395;-72
2021/04/11 01:24:09;;;;;;;1.90;0.70;;;;;;;;;;5072967;28;20460;-72
2021/04/11 01:26:34;;;;;;;0.90;0.80;;;;;;;;;;5073140;28;20398;-74
2021/04/11 01:29:01;;;;;;;2.10;1.20;;;;;;;;;;5072569;28;20920;-74
2021/04/11 01:31:30;;;;;;;1.67;1.43;;;;;;;;;;5064669;28;20465;-74
2021/04/11 01:33:56;;;;;;;2.80;0.90;;;;;;;;;;5071400;28;20452;-72
2021/04/11 01:36:23;;;;;;;2.07;1.23;;;;;;;;;;5071860;28;20480;-72
2021/04/11 01:38:50;;;;;;;0.90;0.70;;;;;;;;;;5067392;28;20407;-71
2021/04/11 01:41:16;;;;;;;2.40;1.53;;;;;;;;;;5050104;28;20887;-72
2021/04/11 01:43:42;;;;;;;1.37;1.27;;;;;;;;;;5051755;28;20415;-73
2021/04/11 01:46:09;;;;;;;1.13;0.60;;;;;;;;;;5051720;28;20417;-72
2021/04/11 01:48:36;;;;;;;1.50;1.33;;;;;;;;;;5050516;28;20850;-72
2021/04/11 01:51:03;;;;;;;0.93;0.70;;;;;;;;;;5051322;28;20498;-72
2021/04/11 01:53:30;;;;;;;1.00;0.80;;;;;;;;;;5051487;28;21045;-71
2021/04/11 01:55:56;;;;;;;3.20;1.40;;;;;;;;;;5050222;28;20560;-72
2021/04/11 01:58:22;;;;;;;7.00;1.50;;;;;;;;;;5056712;28;20450;-72
2021/04/11 02:00:49;;;;;;;1.67;1.47;;;;;;;;;;5052313;28;20440;-72
2021/04/11 02:03:19;;;;;;;3.23;1.67;;;;;;;;;;5057514;28;20509;-72
2021/04/11 02:05:48;;;;;;;1.20;1.10;;;;;;;;;;5051711;28;20374;-72
2021/04/11 02:08:16;;;;;;;1.73;0.90;;;;;;;;;;5068107;28;20521;-71
2021/04/11 02:10:44;;;;;;;0.83;0.80;;;;;;;;;;5051051;28;20407;-71
2021/04/11 02:13:10;;;;;;;5.17;1.40;;;;;;;;;;5049524;28;20447;-71
2021/04/11 02:15:40;;;;;;;3.43;1.43;;;;;;;;;;5051563;28;20399;-72
2021/04/11 02:18:06;;;;;;;5.23;2.10;;;;;;;;;;5051084;28;20509;-72
2021/04/11 02:20:32;;;;;;;1.77;0.70;;;;;;;;;;5050233;28;20514;-70
2021/04/11 02:22:58;;;;;;;1.47;1.37;;;;;;;;;;5050522;28;20407;-73
2021/04/11 02:25:26;;;;;;;1.10;0.97;;;;;;;;;;5051126;28;20769;-73
2021/04/11 02:27:53;;;;;;;3.90;3.60;;;;;;;;;;5051071;28;20420;-73
2021/04/11 02:30:21;;;;;;;2.00;1.90;;;;;;;;;;5050786;28;20926;-71
2021/04/11 02:32:47;;;;;;;3.90;2.00;;;;;;;;;;5050596;28;20407;-71
2021/04/11 02:35:14;;;;;;;1.00;0.83;;;;;;;;;;5051035;28;20414;-73
2021/04/11 02:37:42;;;;;;;1.63;1.53;;;;;;;;;;5049634;28;20458;-72
2021/04/11 02:40:11;;;;;;;3.00;2.67;;;;;;;;;;5050733;28;20482;-72
2021/04/11 02:42:37;;;;;;;3.90;1.60;;;;;;;;;;5050217;28;20403;-72
2021/04/11 02:45:08;;;;;;;0.93;0.77;;;;;;;;;;5050760;28;20781;-73
2021/04/11 02:47:34;;;;;;;5.47;2.57;;;;;;;;;;5050907;28;20806;-72
2021/04/11 02:50:00;;;;;;;11.83;2.60;;;;;;;;;;5049146;28;20414;-72
2021/04/11 02:52:29;;;;;;;2.30;0.83;;;;;;;;;;5049142;28;20399;-73
2021/04/11 02:54:55;;;;;;;1.60;1.50;;;;;;;;;;5050432;28;20456;-72
2021/04/11 02:57:22;;;;;;;3.80;1.70;;;;;;;;;;5049749;28;20412;-72
2021/04/11 02:59:50;;;;;;;1.43;1.03;;;;;;;;;;5050635;28;20465;-72
2021/04/11 03:02:16;;;;;;;4.30;1.80;;;;;;;;;;5049409;28;20963;-72
2021/04/11 03:04:42;;;;;;;2.00;1.77;;;;;;;;;;5050386;28;20407;-71
2021/04/11 03:07:14;;;;;;;2.10;1.93;;;;;;;;;;5050334;28;20480;-72
2021/04/11 03:09:42;;;;;;;3.63;3.33;;;;;;;;;;5050343;28;20985;-72
2021/04/11 03:12:09;;;;;;;2.83;1.90;;;;;;;;;;5049535;28;20410;-72
2021/04/11 03:14:36;;;;;;;2.13;0.90;;;;;;;;;;5050261;28;20562;-73
2021/04/11 03:17:09;;;;;;;3.00;1.73;;;;;;;;;;5050400;28;20428;-72
2021/04/11 03:19:37;;;;;;;1.40;1.30;;;;;;;;;;5049630;28;20395;-71
2021/04/11 03:22:04;;;;;;;1.57;1.43;;;;;;;;;;5049582;28;20403;-71
2021/04/11 03:24:29;;;;;;;7.63;1.90;;;;;;;;;;5032338;28;20445;-71
2021/04/11 03:27:16;;;;;;;1.60;1.50;;;;;;;;;;5050224;28;20512;-71
2021/04/11 03:29:55;;;;;;;2.17;2.07;;;;;;;;;;5050460;28;20389;-71
2021/04/11 03:32:31;;;;;;;4.47;2.00;;;;;;;;;;5049603;28;20873;-72
2021/04/11 03:34:59;;;;;;;10.03;1.90;;;;;;;;;;5049948;28;20961;-71
2021/04/11 03:37:26;;;;;;;1.63;1.50;;;;;;;;;;5032230;28;20428;-72
2021/04/11 03:39:53;;;;;;;2.83;1.33;;;;;;;;;;5049942;28;20407;-72
2021/04/11 03:42:20;;;;;;;3.33;3.07;;;;;;;;;;5049518;28;20494;-71
2021/04/11 03:44:47;;;;;;;3.17;2.00;;;;;;;;;;5050019;28;20449;-72
2021/04/11 03:47:20;;;;;;;2.40;1.63;;;;;;;;;;5048932;28;20492;-72
2021/04/11 03:50:00;;;;;;;1.93;1.20;;;;;;;;;;5050136;28;20452;-72
2021/04/11 03:52:28;;;;;;;3.70;1.57;;;;;;;;;;5039112;28;20433;-72
2021/04/11 03:54:55;;;;;;;1.60;1.50;;;;;;;;;;5044098;28;20467;-72
2021/04/11 03:57:24;;;;;;;4.07;1.97;;;;;;;;;;5049405;28;20471;-71
2021/04/11 03:59:53;;;;;;;3.00;1.67;;;;;;;;;;5049837;28;20452;-71
2021/04/11 04:02:22;;;;;;;4.53;4.13;;;;;;;;;;5048998;28;20381;-73
2021/04/11 04:04:48;;;;;;;2.13;1.33;;;;;;;;;;5049577;28;20414;-73
2021/04/11 04:07:16;;;;;;;3.70;2.20;;;;;;;;;;5042979;28;20900;-73
2021/04/11 04:09:43;;;;;;;7.63;2.87;;;;;;;;;;5049378;28;20409;-71
2021/04/11 04:12:15;;;;;;;6.37;1.90;;;;;;;;;;5052484;28;20414;-72
2021/04/11 04:14:46;;;;;;;2.63;2.43;;;;;;;;;;5053394;28;20503;-71
2021/04/11 04:17:32;;;;;;;2.57;1.90;;;;;;;;;;5053302;28;20430;-71
2021/04/11 04:20:07;;;;;;;1.87;1.63;;;;;;;;;;5053107;28;20890;-73
2021/04/11 04:22:36;;;;;;;5.93;2.30;;;;;;;;;;5052822;28;20834;-72
2021/04/11 04:25:12;;;;;;;3.53;2.30;;;;;;;;;;5052836;28;20391;-72
2021/04/11 04:27:52;;;;;;;6.00;1.80;;;;;;;;;;5052222;28;20431;-73
2021/04/11 04:30:21;;;;;;;2.83;1.67;;;;;;;;;;5053078;28;20395;-72
2021/04/11 04:32:53;;;;;;;4.30;2.23;;;;;;;;;;5051933;28;20424;-71
2021/04/11 04:35:38;;;;;;;2.63;2.27;;;;;;;;;;5052854;28;20416;-71
2021/04/11 04:38:04;;;;;;;2.13;2.03;;;;;;;;;;5052687;28;20929;-72
2021/04/11 04:40:49;;;;;;;2.27;1.40;;;;;;;;;;5051069;28;20399;-72
2021/04/11 04:43:17;;;;;;;4.97;2.83;;;;;;;;;;5048115;28;20411;-72
2021/04/11 04:45:43;;;;;;;4.30;3.07;;;;;;;;;;5031664;28;20464;-72
2021/04/11 04:48:14;;;;;;;7.17;2.97;;;;;;;;;;5052626;28;20976;-72
2021/04/11 04:50:44;;;;;;;3.70;1.40;;;;;;;;;;5048863;28;20821;-73
2021/04/11 04:53:16;;;;;;;6.63;3.10;;;;;;;;;;5049422;28;20587;-73
2021/04/11 04:55:45;;;;;;;3.37;1.73;;;;;;;;;;5050407;28;20402;-72
2021/04/11 04:58:14;;;;;;;2.93;2.73;;;;;;;;;;5042714;28;20447;-71
2021/04/11 05:00:41;;;;;;;4.73;1.70;;;;;;;;;;5052537;28;20803;-72
2021/04/11 05:03:15;;;;;;;5.60;2.50;;;;;;;;;;5043980;28;20438;-73
2021/04/11 05:05:49;;;;;;;3.83;1.50;;;;;;;;;;5031560;28;20437;-72
2021/04/11 05:08:25;;;;;;;8.03;3.40;;;;;;;;;;5034545;28;20432;-73
2021/04/11 05:10:58;;;;;;;1.97;1.13;;;;;;;;;;5052015;28;20399;-72
2021/04/11 05:13:25;;;;;;;3.90;2.37;;;;;;;;;;5051957;28;21041;-72
2021/04/11 05:15:57;;;;;;;3.53;2.10;;;;;;;;;;5052098;28;20410;-74
2021/04/11 05:18:27;;;;;;;5.37;2.40;;;;;;;;;;5047523;28;20434;-72
2021/04/11 05:20:58;;;;;;;5.03;2.27;;;;;;;;;;5046363;28;21052;-72
2021/04/11 05:23:45;;;;;;;4.03;2.97;;;;;;;;;;5048986;28;20406;-71
2021/04/11 05:26:23;;;;;;;7.50;3.40;;;;;;;;;;5045403;28;20464;-72
2021/04/11 05:29:01;;;;;;;7.93;3.50;;;;;;;;;;5031235;28;20795;-73
2021/04/11 05:31:28;;;;;;;6.80;2.30;;;;;;;;;;5043672;28;20415;-74
2021/04/11 05:33:54;;;;;;;1.70;1.60;;;;;;;;;;5046751;28;20442;-72
2021/04/11 05:36:29;;;;;;;1.90;1.80;;;;;;;;;;5042176;28;20411;-73
2021/04/11 05:39:02;;;;;;;4.50;2.33;;;;;;;;;;5052139;28;21108;-73
2021/04/11 05:41:35;;;;;;;5.07;3.03;;;;;;;;;;5051009;28;20892;-73
2021/04/11 05:44:14;;;;;;;8.27;3.70;;;;;;;;;;5051668;28;20444;-72
2021/04/11 05:46:43;;;;;;;2.90;2.70;;;;;;;;;;5051878;28;20430;-72
2021/04/11 05:49:17;;;;;;;3.47;2.47;;;;;;;;;;5048002;28;20421;-72
2021/04/11 05:51:46;;;;;;;6.80;2.47;;;;;;;;;;5047488;28;20981;-73
2021/04/11 05:54:18;;;;;;;2.93;2.70;;;;;;;;;;5026488;28;20433;-72
2021/04/11 05:56:51;;;;;;;3.83;2.97;;;;;;;;;;5045795;28;20840;-72
2021/04/11 05:59:19;;;;;;;8.77;2.90;;;;;;;;;;5051026;28;20403;-72
2021/04/11 06:01:56;;;;;;;4.00;2.93;;;;;;;;;;5048713;28;20410;-73
2021/04/11 06:04:39;;;;;;;11.47;2.53;;;;;;;;;;5045801;28;20417;-73
2021/04/11 06:07:11;;;;;;;11.10;2.10;;;;;;;;;;5046629;28;20444;-73
2021/04/11 06:09:44;;;;;;;2.23;1.57;;;;;;;;;;5047392;28;20381;-72
2021/04/11 06:12:25;;;;;;;10.40;4.13;;;;;;;;;;5050246;28;20417;-73
2021/04/11 06:14:54;;;;;;;11.33;4.13;;;;;;;;;;5051407;28;20537;-72
2021/04/11 06:17:20;;;;;;;5.83;3.20;;;;;;;;;;5051219;28;20415;-72
2021/04/11 06:19:47;;;;;;;6.43;5.70;;;;;;;;;;5051213;28;20971;-72
2021/04/11 06:22:37;;;;;;;4.33;3.17;;;;;;;;;;5050352;28;20404;-71
2021/04/11 06:25:03;;;;;;;8.03;3.37;;;;;;;;;;5051204;28;20759;-73
2021/04/11 06:27:52;;;;;;;3.27;2.60;;;;;;;;;;5050704;28;20425;-71
2021/04/11 06:30:24;;;;;;;4.40;2.17;;;;;;;;;;5049703;28;20415;-70
2021/04/11 06:32:56;;;;;;;2.80;2.00;;;;;;;;;;5049356;28;20406;-72
2021/04/11 06:35:27;;;;;;;6.70;2.53;;;;;;;;;;5051029;28;20382;-71
2021/04/11 06:37:55;;;;;;;3.67;1.50;;;;;;;;;;5050673;28;20423;-73
2021/04/11 06:40:42;;;;;;;6.57;2.83;;;;;;;;;;5050885;28;20389;-74
2021/04/11 06:43:20;;;;;;;5.07;2.37;;;;;;;;;;5050350;28;20753;-72
2021/04/11 06:45:52;;;;;;;4.00;2.43;;;;;;;;;;5050581;28;20414;-72
2021/04/11 06:48:29;;;;;;;3.87;3.23;;;;;;;;;;5049538;28;20413;-71
2021/04/11 06:51:07;;;;;;;3.37;2.87;;;;;;;;;;5044312;28;20405;-72
2021/04/11 06:53:48;;;;;;;3.03;1.27;;;;;;;;;;5048392;28;20426;-71
2021/04/11 06:56:22;;;;;;;4.30;3.47;;;;;;;;;;5027073;28;20406;-71
2021/04/11 06:59:08;;;;;;;3.20;2.63;;;;;;;;;;5075049;22;20962;-74
2021/04/11 07:01:40;;;;;;;2.27;2.03;;;;;;;;;;5064183;28;20429;-72
2021/04/11 07:04:06;;;;;;;6.47;2.30;;;;;;;;;;5065178;28;20397;-74
2021/04/11 07:06:51;;;;;;;3.00;2.17;;;;;;;;;;5070350;28;20965;-73
2021/04/11 07:09:34;;;;;;;3.13;2.47;;;;;;;;;;5050671;28;20444;-74
2021/04/11 07:12:00;;;;;;;3.27;1.30;;;;;;;;;;5049847;28;20447;-73
2021/04/11 07:14:35;;;;;;;3.17;2.43;;;;;;;;;;5050637;28;20467;-74
2021/04/11 07:17:04;;;;;;;3.93;1.73;;;;;;;;;;5064882;28;20418;-75
2021/04/11 07:19:48;;;;;;;2.70;1.50;;;;;;;;;;5064639;28;20518;-74
2021/04/11 07:22:33;;;;;;;8.03;3.20;;;;;;;;;;5064715;28;20505;-74
2021/04/11 07:25:15;;;;;;;1.53;1.43;;;;;;;;;;5066140;28;20408;-74
2021/04/11 07:27:56;;;;;;;5.50;2.63;;;;;;;;;;5069273;28;20419;-74
2021/04/11 07:30:35;;;;;;;4.20;2.57;;;;;;;;;;5068044;28;20482;-74
2021/04/11 07:33:04;;;;;;;1.57;1.47;;;;;;;;;;5066129;28;20389;-72
2021/04/11 07:35:41;;;;;;;5.47;2.60;;;;;;;;;;5063725;28;20397;-73
2021/04/11 07:38:11;;;;;;;6.90;5.10;;;;;;;;;;5061939;28;20424;-74
2021/04/11 07:40:56;;;;;;;2.67;2.47;;;;;;;;;;5068919;28;20411;-75
2021/04/11 07:43:28;;;;;;;7.87;5.23;;;;;;;;;;5070084;28;20486;-72
2021/04/11 07:46:06;;;;;;;3.27;2.07;;;;;;;;;;5033122;28;20945;-73
2021/04/11 07:48:35;;;;;;;3.83;2.67;;;;;;;;;;5078131;28;20483;-72
2021/04/11 07:51:07;;;;;;;5.47;4.27;;;;;;;;;;5067116;28;20524;-72
2021/04/11 07:53:36;;;;;;;11.33;6.13;;;;;;;;;;5065451;28;20495;-74
2021/04/11 07:56:21;;;;;;;4.60;3.00;;;;;;;;;;5072410;28;20408;-74
2021/04/11 07:58:55;;;;;;;4.53;2.73;;;;;;;;;;5072327;28;20403;-74
2021/04/11 08:01:24;;;;;;;7.70;4.63;;;;;;;;;;5071219;28;20460;-75
2021/04/11 08:03:50;;;;;;;9.07;3.30;;;;;;;;;;5066252;28;20411;-73
2021/04/11 08:06:37;;;;;;;4.20;2.50;;;;;;;;;;5065970;28;20400;-73
2021/04/11 08:09:29;;;;;;;2.93;2.67;;;;;;;;;;5067193;28;20448;-72
2021/04/11 08:12:13;;;;;;;2.60;1.50;;;;;;;;;;5057146;28;20409;-78
2021/04/11 08:14:48;;;;;;;3.87;2.67;;;;;;;;;;5065956;28;20574;-73
2021/04/11 08:17:33;;;;;;;5.30;3.30;;;;;;;;;;5070238;28;20858;-73
2021/04/11 08:20:14;;;;;;;4.33;1.73;;;;;;;;;;5068429;28;20423;-74
2021/04/11 08:22:46;;;;;;;4.07;3.07;;;;;;;;;;5069084;28;20409;-74
2021/04/11 08:25:31;;;;;;;4.73;3.10;;;;;;;;;;5069638;28;20465;-75
2021/04/11 08:28:00;;;;;;;10.43;3.53;;;;;;;;;;5061364;28;20432;-74
2021/04/11 08:30:44;;;;;;;9.70;3.07;;;;;;;;;;5063429;28;20916;-75
2021/04/11 08:33:23;;;;;;;4.37;3.37;;;;;;;;;;5068299;28;20402;-75
2021/04/11 08:35:48;;;;;;;4.80;3.33;;;;;;;;;;5063272;28;20379;-75
2021/04/11 08:38:35;;;;;;;9.50;2.80;;;;;;;;;;5067198;28;20404;-75
2021/04/11 08:41:08;;;;;;;7.73;5.60;;;;;;;;;;5037940;28;20414;-75
2021/04/11 08:43:54;;;;;;;5.03;3.20;;;;;;;;;;5063549;28;20440;-76
2021/04/11 08:46:29;;;;;;;8.03;4.60;;;;;;;;;;5053516;28;20429;-75
2021/04/11 08:49:05;;;;;;;9.70;3.30;;;;;;;;;;5069214;28;20429;-75
2021/04/11 08:51:37;;;;;;;9.23;3.70;;;;;;;;;;5066646;28;20454;-75
2021/04/11 08:54:38;;;;;;;5.57;2.80;;;;;;;;;;5060534;28;20445;-75
2021/04/11 08:57:05;;;;;;;2.40;1.90;;;;;;;;;;4990188;28;20442;-76
2021/04/11 08:59:42;;;;;;;5.87;4.33;;;;;;;;;;5051125;28;20449;-76
2021/04/11 09:02:20;;;;;;;6.00;2.83;;;;;;;;;;5062039;28;20375;-75
2021/04/11 09:04:51;;;;;;;4.87;3.13;;;;;;;;;;5062194;28;20402;-73
2021/04/11 09:07:33;;;;;;;2.90;2.70;;;;;;;;;;5067172;28;20810;-75
2021/04/11 09:09:58;;;;;;;3.00;2.47;;;;;;;;;;5068297;28;20385;-75
2021/04/11 09:12:43;;;;;;;8.67;3.77;;;;;;;;;;5065703;28;20403;-76
2021/04/11 09:15:09;;;;;;;3.77;3.07;;;;;;;;;;5059751;28;20458;-75
2021/04/11 09:17:38;;;;;;;5.93;3.57;;;;;;;;;;5070908;28;20397;-75
2021/04/11 09:20:14;;;;;;;4.93;2.67;;;;;;;;;;5066738;28;20754;-75
2021/04/11 09:22:43;;;;;;;3.83;3.53;;;;;;;;;;5067926;28;20661;-74
2021/04/11 09:25:19;;;;;;;4.77;2.33;;;;;;;;;;5066958;28;20470;-75
2021/04/11 09:27:47;;;;;;;4.93;3.80;;;;;;;;;;5068502;28;20399;-74
2021/04/11 09:30:26;;;;;;;3.23;2.13;;;;;;;;;;5063659;28;20394;-75
2021/04/11 09:33:03;;;;;;;2.40;2.20;;;;;;;;;;5061996;28;20367;-76
2021/04/11 09:35:35;;;;;;;4.13;1.90;;;;;;;;;;5063605;28;20840;-74
2021/04/11 09:38:09;;;;;;;3.17;2.00;;;;;;;;;;5060965;28;20412;-76
2021/04/11 09:40:38;;;;;;;3.00;1.77;;;;;;;;;;5061381;28;20374;-75
2021/04/11 09:43:10;;;;;;;3.27;2.40;;;;;;;;;;5061729;28;20402;-76
2021/04/11 09:45:55;;;;;;;4.40;2.00;;;;;;;;;;5065822;28;20484;-75
2021/04/11 09:48:35;;;;;;;1.60;1.17;;;;;;;;;;5064387;28;20395;-76
2021/04/11 09:51:07;;;;;;;1.87;1.60;;;;;;;;;;5064479;28;20791;-76
2021/04/11 09:53:33;;;;;;;2.40;1.10;;;;;;;;;;5063990;28;20481;-76
2021/04/11 09:56:02;;;;;;;2.60;1.07;;;;;;;;;;5071158;28;20419;-75
2021/04/11 09:58:46;;;;;;;2.20;1.70;;;;;;;;;;5070676;28;20424;-75
2021/04/11 10:01:12;;;;;;;3.13;2.40;;;;;;;;;;5069985;28;20396;-70
2021/04/11 10:03:57;;;;;;;2.27;1.93;;;;;;;;;;5069750;28;20183;-71
2021/04/11 10:06:34;;;;;;;3.87;2.20;;;;;;;;;;5061368;28;20381;-71
2021/04/11 10:09:00;;;;;;;2.33;1.97;;;;;;;;;;5070370;28;20463;-71
2021/04/11 10:11:34;;;;;;;3.07;2.83;;;;;;;;;;5069928;28;20376;-71
2021/04/11 10:14:19;;;;;;;1.77;1.30;;;;;;;;;;5070922;28;20488;-71
2021/04/11 10:17:05;;;;;;;2.70;1.40;;;;;;;;;;5071430;28;20481;-71
2021/04/11 10:19:34;;;;;;;3.03;2.47;;;;;;;;;;5070935;28;20449;-71
2021/04/11 10:22:18;;;;;;;3.37;2.07;;;;;;;;;;5070512;28;20398;-71
2021/04/11 10:24:46;;;;;;;3.57;2.47;;;;;;;;;;5071154;28;20424;-71
2021/04/11 10:27:41;;;;;;;7.27;2.40;;;;;;;;;;5063332;28;20439;-69
2021/04/11 10:30:10;;;;;;;1.63;1.53;;;;;;;;;;5000948;28;20400;-71
2021/04/11 10:32:48;;;;;;;2.13;1.60;;;;;;;;;;5063775;28;20744;-71
2021/04/11 10:35:14;;;;;;;3.30;1.97;;;;;;;;;;5071034;28;20439;-68
2021/04/11 10:37:43;;;;;;;4.40;3.10;;;;;;;;;;5070638;28;20497;-69
2021/04/11 10:40:21;;;;;;;3.20;1.80;;;;;;;;;;5070816;28;20364;-71
2021/04/11 10:43:04;;;;;;;4.90;1.90;;;;;;;;;;5064367;28;20396;-71
2021/04/11 10:45:38;;;;;;;2.67;1.90;;;;;;;;;;5068560;28;20893;-71
2021/04/11 10:48:27;;;;;;;2.03;1.37;;;;;;;;;;5066150;28;20430;-72
2021/04/11 10:51:03;;;;;;;2.77;1.20;;;;;;;;;;5064860;28;20407;-71
2021/04/11 10:53:45;;;;;;;1.90;1.07;;;;;;;;;;5070955;28;20426;-72
2021/04/11 10:56:34;;;;;;;2.03;1.60;;;;;;;;;;5070509;28;20415;-71
2021/04/11 10:59:11;;;;;;;3.27;1.93;;;;;;;;;;5070171;28;20452;-72
2021/04/11 11:02:00;;;;;;;1.40;0.80;;;;;;;;;;5061576;28;20432;-70
2021/04/11 11:04:50;;;;;;;1.93;1.00;;;;;;;;;;5064589;28;20849;-71
2021/04/11 11:07:28;;;;;;;1.50;1.40;;;;;;;;;;5069215;28;20403;-71
2021/04/11 11:09:54;;;;;;;1.30;1.00;;;;;;;;;;5070552;28;20387;-72
2021/04/11 11:12:27;;;;;;;2.53;2.33;;;;;;;;;;5069648;28;20406;-72
2021/04/11 11:14:54;;;;;;;2.80;1.50;;;;;;;;;;5070167;28;20585;-70
2021/04/11 11:17:38;;;;;;;2.70;1.30;;;;;;;;;;5069611;28;20890;-72
2021/04/11 11:20:10;;;;;;;3.00;2.07;;;;;;;;;;5070867;28;20388;-72
2021/04/11 11:22:55;;;;;;;2.90;1.20;;;;;;;;;;5073045;28;20399;-71
2021/04/11 11:25:47;;;;;;;1.30;1.20;;;;;;;;;;5073460;28;20407;-71
2021/04/11 11:28:34;;;;;;;1.37;1.27;;;;;;;;;;5073403;28;20429;-71
2021/04/11 11:31:07;;;;;;;4.40;2.20;;;;;;;;;;5068668;28;20403;-71
2021/04/11 11:33:48;;;;;;;3.10;2.13;;;;;;;;;;5068696;28;20450;-70
2021/04/11 11:36:33;;;;;;;5.00;2.40;;;;;;;;;;5067542;28;20742;-69
2021/04/11 11:39:07;;;;;;;3.97;3.20;;;;;;;;;;5063705;28;20403;-70
2021/04/11 11:41:35;;;;;;;3.63;3.00;;;;;;;;;;5063766;28;21053;-72
2021/04/11 11:44:13;;;;;;;3.77;2.10;;;;;;;;;;5066789;28;20403;-70
2021/04/11 11:46:58;;;;;;;1.93;1.73;;;;;;;;;;5064560;28;20368;-71
2021/04/11 11:49:28;;;;;;;2.00;1.47;;;;;;;;;;5066225;28;21183;-71
2021/04/11 11:52:01;;;;;;;1.80;1.30;;;;;;;;;;5062139;28;20471;-71
2021/04/11 11:54:30;;;;;;;2.90;1.40;;;;;;;;;;5066611;28;20617;-71
2021/04/11 11:57:05;;;;;;;1.97;1.70;;;;;;;;;;5060653;28;20485;-71
2021/04/11 11:59:33;;;;;;;2.93;1.40;;;;;;;;;;5065382;28;20493;-71
2021/04/11 12:01:59;;;;;;;1.47;0.90;;;;;;;;;;5072079;28;20401;-69
2021/04/11 12:04:42;;;;;;;1.43;0.70;;;;;;;;;;5065347;28;20407;-71
2021/04/11 12:07:19;;;;;;;3.23;1.00;;;;;;;;;;5063173;28;20383;-71
2021/04/11 12:09:46;;;;;;;1.43;1.17;;;;;;;;;;5070516;28;20397;-70
2021/04/11 12:12:15;;;;;;;3.60;1.27;;;;;;;;;;5072290;28;20536;-71
2021/04/11 12:14:47;;;;;;;2.17;1.40;;;;;;;;;;5072999;28;20441;-71
2021/04/11 12:17:32;;;;;;;1.87;0.90;;;;;;;;;;5069208;28;20946;-70
2021/04/11 12:19:59;;;;;;;1.43;0.77;;;;;;;;;;5066904;28;20421;-72
2021/04/11 12:22:25;;;;;;;1.53;1.43;;;;;;;;;;5072437;28;20428;-69
2021/04/11 12:24:55;;;;;;;3.40;2.33;;;;;;;;;;5059190;28;20465;-71
2021/04/11 12:27:30;;;;;;;2.80;0.73;;;;;;;;;;5059742;28;20418;-70
2021/04/11 12:29:58;;;;;;;1.23;0.93;;;;;;;;;;5070897;28;20410;-69
2021/04/11 12:32:24;;;;;;;2.10;1.83;;;;;;;;;;5071183;28;20380;-72
2021/04/11 12:34:52;;;;;;;1.53;0.80;;;;;;;;;;5067343;28;20460;-70
2021/04/11 12:37:26;;;;;;;1.30;1.00;;;;;;;;;;5069392;28;20395;-71
2021/04/11 12:40:01;;;;;;;1.83;1.27;;;;;;;;;;5072451;28;20370;-71
2021/04/11 12:42:40;;;;;;;4.40;1.67;;;;;;;;;;5070104;28;20407;-70
2021/04/11 12:45:13;;;;;;;1.53;0.77;;;;;;;;;;5047146;28;21066;-71
2021/04/11 12:47:48;;;;;;;1.30;0.90;;;;;;;;;;5064005;28;20456;-71
2021/04/11 12:50:32;;;;;;;1.17;0.60;;;;;;;;;;5063868;28;20379;-70
2021/04/11 12:53:02;;;;;;;0.80;0.80;;;;;;;;;;5081701;28;20473;-71
2021/04/11 12:55:28;;;;;;;4.10;1.43;;;;;;;;;;5078051;28;20511;-71
2021/04/11 13:00:27;;;;;;;3.20;1.07;;;;;;;;;;5065454;28;20519;-73
2021/04/11 13:02:56;;;;;;;3.30;1.10;;;;;;;;;;5074967;28;20380;-71
2021/04/11 13:05:35;;;;;;;0.80;0.60;;;;;;;;;;5073054;28;20372;-70
2021/04/11 13:08:13;;;;;;;0.97;0.70;;;;;;;;;;5071638;28;21119;-71
2021/04/11 13:10:58;;;;;;;0.80;0.60;;;;;;;;;;5071085;28;20397;-71
2021/04/11 13:13:27;;;;;;;1.43;1.30;;;;;;;;;;5066535;28;20389;-71
2021/04/11 13:16:12;;;;;;;2.73;1.20;;;;;;;;;;5073713;28;20926;-73
2021/04/11 13:18:38;;;;;;;1.27;0.80;;;;;;;;;;5078192;28;20912;-72
2021/04/11 13:21:06;;;;;;;1.00;0.90;;;;;;;;;;5071980;28;20412;-72
2021/04/11 13:23:41;;;;;;;0.77;0.57;;;;;;;;;;5073650;28;20717;-73
2021/04/11 13:26:11;;;;;;;0.70;0.60;;;;;;;;;;5070849;28;20406;-71
2021/04/11 13:28:40;;;;;;;0.70;0.50;;;;;;;;;;5071389;28;20474;-71
2021/04/11 13:31:09;;;;;;;0.80;0.60;;;;;;;;;;5070271;28;20429;-72
2021/04/11 13:33:40;;;;;;;1.63;0.90;;;;;;;;;;5077311;28;20984;-71
2021/04/11 13:36:08;;;;;;;2.13;0.83;;;;;;;;;;5077090;28;20390;-72
2021/04/11 13:38:38;;;;;;;0.70;0.50;;;;;;;;;;5073213;28;20422;-71
2021/04/11 13:41:07;;;;;;;0.70;0.50;;;;;;;;;;5078277;28;20426;-75
2021/04/11 13:43:40;;;;;;;1.47;1.03;;;;;;;;;;5077129;28;20404;-73
2021/04/11 13:46:16;;;;;;;0.90;0.60;;;;;;;;;;5056197;28;20507;-70
2021/04/11 13:48:46;;;;;;;0.70;0.40;;;;;;;;;;5069786;28;20435;-71
2021/04/11 13:51:32;;;;;;;0.70;0.50;;;;;;;;;;5067460;28;20835;-70
2021/04/11 13:54:14;;;;;;;0.80;0.50;;;;;;;;;;5067402;28;20451;-72
2021/04/11 13:56:52;;;;;;;0.90;0.60;;;;;;;;;;5070963;28;21004;-71
2021/04/11 13:59:51;;;;;;;0.70;0.50;;;;;;;;;;5066385;28;20465;-70
2021/04/11 14:02:17;;;;;;;0.87;0.63;;;;;;;;;;5042685;28;20410;-71
2021/04/11 14:04:48;;;;;;;0.83;0.50;;;;;;;;;;5070902;28;20395;-71
2021/04/11 14:07:18;;;;;;;1.37;0.60;;;;;;;;;;5053268;28;20393;-71
2021/04/11 14:09:47;;;;;;;1.00;0.80;;;;;;;;;;5070825;28;20906;-71
2021/04/11 14:12:22;;;;;;;1.50;0.80;;;;;;;;;;5070604;28;20843;-70
2021/04/11 14:14:59;;;;;;;1.20;0.87;;;;;;;;;;5070910;28;20535;-69
2021/04/11 14:17:29;;;;;;;1.37;0.60;;;;;;;;;;5072608;28;21020;-71
2021/04/11 14:20:12;;;;;;;0.70;0.50;;;;;;;;;;5077436;28;20461;-73
2021/04/11 14:22:44;;;;;;;0.70;0.40;;;;;;;;;;5072944;28;20409;-71
2021/04/11 14:25:39;;;;;;;1.20;0.60;;;;;;;;;;5085645;28;20402;-71
2021/04/11 14:28:08;;;;;;;1.00;0.80;;;;;;;;;;5049527;28;20453;-70
2021/04/11 14:30:33;;;;;;;0.80;0.63;;;;;;;;;;5071655;28;20897;-71
2021/04/11 14:33:18;;;;;;;0.93;0.83;;;;;;;;;;5073018;28;20413;-72
2021/04/11 14:35:56;;;;;;;0.97;0.60;;;;;;;;;;5074039;28;20489;-72
2021/04/11 14:38:26;;;;;;;0.80;0.50;;;;;;;;;;5062300;28;20449;-73
2021/04/11 14:40:57;;;;;;;1.40;0.70;;;;;;;;;;5073915;28;20759;-72
2021/04/11 14:43:49;;;;;;;1.00;0.50;;;;;;;;;;5071313;28;20376;-71
2021/04/11 14:46:37;;;;;;;0.90;0.60;;;;;;;;;;5078050;28;20449;-71
2021/04/11 14:49:09;;;;;;;1.00;0.70;;;;;;;;;;5073927;28;20430;-72
2021/04/11 14:51:40;;;;;;;1.67;0.80;;;;;;;;;;5064438;28;20449;-72
2021/04/11 14:54:22;;;;;;;0.70;0.47;;;;;;;;;;5067506;28;20515;-73
2021/04/11 14:56:54;;;;;;;0.83;0.83;;;;;;;;;;5071066;28;20980;-72
2021/04/11 14:59:34;;;;;;;0.90;0.73;;;;;;;;;;5071027;28;20452;-71
2021/04/11 15:02:13;;;;;;;1.10;0.53;;;;;;;;;;5071644;28;20493;-73
2021/04/11 15:04:52;;;;;;;0.70;0.40;;;;;;;;;;5069526;28;20791;-73
2021/04/11 15:07:23;;;;;;;0.70;0.40;;;;;;;;;;5065481;28;20448;-73
2021/04/11 15:10:07;;;;;;;3.23;0.77;;;;;;;;;;5071481;28;20410;-72
2021/04/11 15:12:52;;;;;;;0.70;0.50;;;;;;;;;;5066186;28;20409;-73
2021/04/11 15:15:23;;;;;;;0.80;0.53;;;;;;;;;;5072514;28;20811;-73
2021/04/11 15:18:01;;;;;;;0.70;0.53;;;;;;;;;;5073688;28;20815;-73
2021/04/11 15:20:29;;;;;;;0.90;0.50;;;;;;;;;;5070654;28;20394;-72